sensor_id;sensor_type;location;lat;lon;timestamp;P1;durP1;ratioP1;P2;durP2;ratioP2
65879;SDS011;52661;51.364;6.054;2022-08-16T00:00:52;6.07;;;3.45;;
65879;SDS011;52661;51.364;6.054;2022-08-16T00:03:18;6.90;;;3.55;;
65879;SDS011;52661;51.364;6.054;2022-08-16T00:05:43;5.32;;;3.80;;
65879;SDS011;52661;51.364;6.054;2022-08-16T00:08:08;7.20;;;3.93;;
65879;SDS011;52661;51.364;6.054;2022-08-16T00:10:35;6.60;;;3.70;;
65879;SDS011;52661;51.364;6.054;2022-08-16T00:13:02;7.63;;;4.13;;
65879;SDS011;52661;51.364;6.054;2022-08-16T00:15:35;6.68;;;3.85;;
65879;SDS011;52661;51.364;6.054;2022-08-16T00:18:03;6.63;;;2.97;;
65879;SDS011;52661;51.364;6.054;2022-08-16T00:20:30;5.47;;;3.60;;
65879;SDS011;52661;51.364;6.054;2022-08-16T00:22:56;7.15;;;3.15;;
65879;SDS011;52661;51.364;6.054;2022-08-16T00:25:22;5.65;;;2.92;;
65879;SDS011;52661;51.364;6.054;2022-08-16T00:27:48;5.03;;;3.05;;
65879;SDS011;52661;51.364;6.054;2022-08-16T00:30:15;5.57;;;2.83;;
65879;SDS011;52661;51.364;6.054;2022-08-16T00:32:42;10.35;;;3.42;;
65879;SDS011;52661;51.364;6.054;2022-08-16T00:35:11;4.30;;;2.72;;
65879;SDS011;52661;51.364;6.054;2022-08-16T00:37:42;6.97;;;3.60;;
65879;SDS011;52661;51.364;6.054;2022-08-16T00:40:09;5.90;;;3.13;;
65879;SDS011;52661;51.364;6.054;2022-08-16T00:42:35;5.30;;;2.88;;
65879;SDS011;52661;51.364;6.054;2022-08-16T00:45:47;5.68;;;3.30;;
65879;SDS011;52661;51.364;6.054;2022-08-16T00:48:15;6.25;;;2.95;;
65879;SDS011;52661;51.364;6.054;2022-08-16T00:50:42;5.18;;;2.78;;
65879;SDS011;52661;51.364;6.054;2022-08-16T00:53:09;5.88;;;2.58;;
65879;SDS011;52661;51.364;6.054;2022-08-16T00:55:38;5.43;;;2.45;;
65879;SDS011;52661;51.364;6.054;2022-08-16T00:58:08;6.07;;;2.83;;
65879;SDS011;52661;51.364;6.054;2022-08-16T01:00:34;4.95;;;2.70;;
65879;SDS011;52661;51.364;6.054;2022-08-16T01:03:05;5.45;;;2.85;;
65879;SDS011;52661;51.364;6.054;2022-08-16T01:05:32;5.82;;;3.15;;
65879;SDS011;52661;51.364;6.054;2022-08-16T01:07:59;5.28;;;3.00;;
65879;SDS011;52661;51.364;6.054;2022-08-16T01:10:27;5.13;;;2.88;;
65879;SDS011;52661;51.364;6.054;2022-08-16T01:12:55;6.07;;;2.45;;
65879;SDS011;52661;51.364;6.054;2022-08-16T01:15:21;8.50;;;3.60;;
65879;SDS011;52661;51.364;6.054;2022-08-16T01:17:47;4.55;;;2.97;;
65879;SDS011;52661;51.364;6.054;2022-08-16T01:20:13;5.18;;;2.47;;
65879;SDS011;52661;51.364;6.054;2022-08-16T01:25:33;4.63;;;2.78;;
65879;SDS011;52661;51.364;6.054;2022-08-16T01:28:02;5.63;;;3.05;;
65879;SDS011;52661;51.364;6.054;2022-08-16T01:30:33;6.68;;;2.72;;
65879;SDS011;52661;51.364;6.054;2022-08-16T01:33:02;7.57;;;2.05;;
65879;SDS011;52661;51.364;6.054;2022-08-16T01:35:32;5.95;;;2.60;;
65879;SDS011;52661;51.364;6.054;2022-08-16T01:40:50;5.80;;;2.90;;
65879;SDS011;52661;51.364;6.054;2022-08-16T01:43:18;5.40;;;2.85;;
65879;SDS011;52661;51.364;6.054;2022-08-16T01:45:44;4.18;;;3.00;;
65879;SDS011;52661;51.364;6.054;2022-08-16T01:48:09;5.25;;;2.75;;
65879;SDS011;52661;51.364;6.054;2022-08-16T01:50:35;4.40;;;2.72;;
65879;SDS011;52661;51.364;6.054;2022-08-16T01:53:02;4.13;;;2.55;;
65879;SDS011;52661;51.364;6.054;2022-08-16T01:55:27;4.40;;;2.58;;
65879;SDS011;52661;51.364;6.054;2022-08-16T01:57:53;4.75;;;2.80;;
65879;SDS011;52661;51.364;6.054;2022-08-16T02:00:18;4.30;;;2.73;;
65879;SDS011;52661;51.364;6.054;2022-08-16T02:02:44;6.70;;;2.63;;
65879;SDS011;52661;51.364;6.054;2022-08-16T02:05:10;4.57;;;2.20;;
65879;SDS011;52661;51.364;6.054;2022-08-16T02:07:36;4.38;;;2.22;;
65879;SDS011;52661;51.364;6.054;2022-08-16T02:10:03;3.88;;;2.45;;
65879;SDS011;52661;51.364;6.054;2022-08-16T02:12:32;6.47;;;2.63;;
65879;SDS011;52661;51.364;6.054;2022-08-16T02:14:58;6.50;;;3.13;;
65879;SDS011;52661;51.364;6.054;2022-08-16T02:17:24;6.30;;;2.95;;
65879;SDS011;52661;51.364;6.054;2022-08-16T02:19:49;6.07;;;3.00;;
65879;SDS011;52661;51.364;6.054;2022-08-16T02:22:16;6.00;;;2.08;;
65879;SDS011;52661;51.364;6.054;2022-08-16T02:24:44;4.45;;;2.45;;
65879;SDS011;52661;51.364;6.054;2022-08-16T02:27:10;5.40;;;2.97;;
65879;SDS011;52661;51.364;6.054;2022-08-16T02:29:36;8.02;;;2.90;;
65879;SDS011;52661;51.364;6.054;2022-08-16T02:32:03;4.63;;;2.65;;
65879;SDS011;52661;51.364;6.054;2022-08-16T02:34:29;4.85;;;2.85;;
65879;SDS011;52661;51.364;6.054;2022-08-16T02:36:55;6.05;;;2.58;;
65879;SDS011;52661;51.364;6.054;2022-08-16T02:39:20;4.38;;;2.35;;
65879;SDS011;52661;51.364;6.054;2022-08-16T02:41:47;5.63;;;2.63;;
65879;SDS011;52661;51.364;6.054;2022-08-16T02:46:39;5.37;;;2.70;;
65879;SDS011;52661;51.364;6.054;2022-08-16T02:49:08;5.88;;;2.72;;
65879;SDS011;52661;51.364;6.054;2022-08-16T02:51:35;5.97;;;2.65;;
65879;SDS011;52661;51.364;6.054;2022-08-16T02:54:02;6.13;;;2.55;;
65879;SDS011;52661;51.364;6.054;2022-08-16T02:56:28;6.25;;;2.97;;
65879;SDS011;52661;51.364;6.054;2022-08-16T02:58:54;4.60;;;2.67;;
65879;SDS011;52661;51.364;6.054;2022-08-16T03:01:24;5.78;;;3.30;;
65879;SDS011;52661;51.364;6.054;2022-08-16T03:03:52;5.10;;;2.70;;
65879;SDS011;52661;51.364;6.054;2022-08-16T03:06:18;3.67;;;2.55;;
65879;SDS011;52661;51.364;6.054;2022-08-16T03:08:45;4.57;;;2.50;;
65879;SDS011;52661;51.364;6.054;2022-08-16T03:11:11;4.90;;;2.85;;
65879;SDS011;52661;51.364;6.054;2022-08-16T03:13:37;5.10;;;2.60;;
65879;SDS011;52661;51.364;6.054;2022-08-16T03:16:03;5.30;;;2.92;;
65879;SDS011;52661;51.364;6.054;2022-08-16T03:18:30;5.40;;;3.17;;
65879;SDS011;52661;51.364;6.054;2022-08-16T03:20:56;5.93;;;2.95;;
65879;SDS011;52661;51.364;6.054;2022-08-16T03:23:23;7.78;;;3.10;;
65879;SDS011;52661;51.364;6.054;2022-08-16T03:25:49;5.45;;;2.83;;
65879;SDS011;52661;51.364;6.054;2022-08-16T03:28:15;5.75;;;2.47;;
65879;SDS011;52661;51.364;6.054;2022-08-16T03:30:40;5.63;;;2.75;;
65879;SDS011;52661;51.364;6.054;2022-08-16T03:33:06;5.93;;;2.92;;
65879;SDS011;52661;51.364;6.054;2022-08-16T03:35:32;7.50;;;3.47;;
65879;SDS011;52661;51.364;6.054;2022-08-16T03:38:01;6.72;;;2.78;;
65879;SDS011;52661;51.364;6.054;2022-08-16T03:40:28;4.95;;;2.70;;
65879;SDS011;52661;51.364;6.054;2022-08-16T03:42:55;5.07;;;2.92;;
65879;SDS011;52661;51.364;6.054;2022-08-16T03:45:20;4.57;;;2.70;;
65879;SDS011;52661;51.364;6.054;2022-08-16T03:47:46;4.87;;;2.80;;
65879;SDS011;52661;51.364;6.054;2022-08-16T03:50:13;7.20;;;2.88;;
65879;SDS011;52661;51.364;6.054;2022-08-16T03:52:39;5.75;;;3.03;;
65879;SDS011;52661;51.364;6.054;2022-08-16T03:55:05;4.85;;;3.03;;
65879;SDS011;52661;51.364;6.054;2022-08-16T03:57:33;5.95;;;2.88;;
65879;SDS011;52661;51.364;6.054;2022-08-16T03:59:59;4.68;;;2.80;;
65879;SDS011;52661;51.364;6.054;2022-08-16T04:02:25;5.35;;;3.05;;
65879;SDS011;52661;51.364;6.054;2022-08-16T04:04:51;6.28;;;2.78;;
65879;SDS011;52661;51.364;6.054;2022-08-16T04:07:18;6.18;;;3.10;;
65879;SDS011;52661;51.364;6.054;2022-08-16T04:09:44;7.45;;;3.22;;
65879;SDS011;52661;51.364;6.054;2022-08-16T04:12:09;4.93;;;3.15;;
65879;SDS011;52661;51.364;6.054;2022-08-16T04:14:37;5.85;;;2.90;;
65879;SDS011;52661;51.364;6.054;2022-08-16T04:17:03;4.90;;;3.03;;
65879;SDS011;52661;51.364;6.054;2022-08-16T04:19:29;6.75;;;3.15;;
65879;SDS011;52661;51.364;6.054;2022-08-16T04:21:55;5.20;;;3.10;;
65879;SDS011;52661;51.364;6.054;2022-08-16T04:24:20;6.72;;;3.15;;
65879;SDS011;52661;51.364;6.054;2022-08-16T04:26:46;5.03;;;2.83;;
65879;SDS011;52661;51.364;6.054;2022-08-16T04:29:11;6.97;;;3.45;;
65879;SDS011;52661;51.364;6.054;2022-08-16T04:31:37;5.75;;;3.33;;
65879;SDS011;52661;51.364;6.054;2022-08-16T04:34:02;5.80;;;3.10;;
65879;SDS011;52661;51.364;6.054;2022-08-16T04:36:28;7.85;;;3.33;;
65879;SDS011;52661;51.364;6.054;2022-08-16T04:38:54;4.30;;;2.65;;
65879;SDS011;52661;51.364;6.054;2022-08-16T04:41:20;8.10;;;3.25;;
65879;SDS011;52661;51.364;6.054;2022-08-16T04:43:47;4.40;;;2.90;;
65879;SDS011;52661;51.364;6.054;2022-08-16T04:46:12;5.32;;;3.35;;
65879;SDS011;52661;51.364;6.054;2022-08-16T04:48:39;5.10;;;2.60;;
65879;SDS011;52661;51.364;6.054;2022-08-16T04:51:06;5.38;;;3.40;;
65879;SDS011;52661;51.364;6.054;2022-08-16T04:53:32;7.80;;;3.22;;
65879;SDS011;52661;51.364;6.054;2022-08-16T04:55:58;5.47;;;3.08;;
65879;SDS011;52661;51.364;6.054;2022-08-16T04:58:24;7.22;;;2.97;;
65879;SDS011;52661;51.364;6.054;2022-08-16T05:00:50;7.25;;;3.03;;
65879;SDS011;52661;51.364;6.054;2022-08-16T05:03:15;4.88;;;3.22;;
65879;SDS011;52661;51.364;6.054;2022-08-16T05:05:40;5.78;;;3.25;;
65879;SDS011;52661;51.364;6.054;2022-08-16T05:08:06;6.10;;;3.08;;
65879;SDS011;52661;51.364;6.054;2022-08-16T05:10:32;5.32;;;2.67;;
65879;SDS011;52661;51.364;6.054;2022-08-16T05:12:59;6.05;;;3.35;;
65879;SDS011;52661;51.364;6.054;2022-08-16T05:15:25;5.93;;;3.25;;
65879;SDS011;52661;51.364;6.054;2022-08-16T05:17:51;5.05;;;3.65;;
65879;SDS011;52661;51.364;6.054;2022-08-16T05:20:17;5.45;;;3.22;;
65879;SDS011;52661;51.364;6.054;2022-08-16T05:22:42;6.88;;;4.15;;
65879;SDS011;52661;51.364;6.054;2022-08-16T05:25:08;5.20;;;3.38;;
65879;SDS011;52661;51.364;6.054;2022-08-16T05:27:35;5.78;;;3.40;;
65879;SDS011;52661;51.364;6.054;2022-08-16T05:30:00;8.90;;;2.95;;
65879;SDS011;52661;51.364;6.054;2022-08-16T05:32:26;7.13;;;3.47;;
65879;SDS011;52661;51.364;6.054;2022-08-16T05:34:52;6.88;;;3.58;;
65879;SDS011;52661;51.364;6.054;2022-08-16T05:37:17;5.40;;;3.22;;
65879;SDS011;52661;51.364;6.054;2022-08-16T05:39:42;6.55;;;3.45;;
65879;SDS011;52661;51.364;6.054;2022-08-16T05:42:08;5.03;;;3.17;;
65879;SDS011;52661;51.364;6.054;2022-08-16T05:44:33;8.02;;;3.47;;
65879;SDS011;52661;51.364;6.054;2022-08-16T05:46:59;8.40;;;4.10;;
65879;SDS011;52661;51.364;6.054;2022-08-16T05:49:26;7.13;;;3.70;;
65879;SDS011;52661;51.364;6.054;2022-08-16T05:51:53;8.48;;;3.63;;
65879;SDS011;52661;51.364;6.054;2022-08-16T05:54:19;9.25;;;3.63;;
65879;SDS011;52661;51.364;6.054;2022-08-16T05:56:46;5.97;;;3.45;;
65879;SDS011;52661;51.364;6.054;2022-08-16T05:59:12;7.63;;;3.70;;
65879;SDS011;52661;51.364;6.054;2022-08-16T06:01:39;8.25;;;3.80;;
65879;SDS011;52661;51.364;6.054;2022-08-16T06:04:05;5.90;;;3.95;;
65879;SDS011;52661;51.364;6.054;2022-08-16T06:06:32;6.60;;;3.38;;
65879;SDS011;52661;51.364;6.054;2022-08-16T06:08:57;7.90;;;3.35;;
65879;SDS011;52661;51.364;6.054;2022-08-16T06:11:22;6.68;;;2.90;;
65879;SDS011;52661;51.364;6.054;2022-08-16T06:13:48;5.97;;;3.60;;
65879;SDS011;52661;51.364;6.054;2022-08-16T06:16:13;4.88;;;3.00;;
65879;SDS011;52661;51.364;6.054;2022-08-16T06:18:39;8.30;;;4.20;;
65879;SDS011;52661;51.364;6.054;2022-08-16T06:21:04;6.40;;;4.37;;
65879;SDS011;52661;51.364;6.054;2022-08-16T06:23:29;7.22;;;3.42;;
65879;SDS011;52661;51.364;6.054;2022-08-16T06:25:55;6.73;;;3.67;;
65879;SDS011;52661;51.364;6.054;2022-08-16T06:28:20;7.53;;;3.63;;
65879;SDS011;52661;51.364;6.054;2022-08-16T06:30:45;6.03;;;4.03;;
65879;SDS011;52661;51.364;6.054;2022-08-16T06:33:12;5.53;;;4.07;;
65879;SDS011;52661;51.364;6.054;2022-08-16T06:38:04;7.65;;;4.10;;
65879;SDS011;52661;51.364;6.054;2022-08-16T06:40:29;6.63;;;4.43;;
65879;SDS011;52661;51.364;6.054;2022-08-16T06:42:55;8.18;;;4.40;;
65879;SDS011;52661;51.364;6.054;2022-08-16T06:45:20;6.82;;;4.05;;
65879;SDS011;52661;51.364;6.054;2022-08-16T06:47:47;8.13;;;3.88;;
65879;SDS011;52661;51.364;6.054;2022-08-16T06:50:12;7.32;;;4.55;;
65879;SDS011;52661;51.364;6.054;2022-08-16T06:52:38;9.23;;;4.38;;
65879;SDS011;52661;51.364;6.054;2022-08-16T06:55:04;7.90;;;4.00;;
65879;SDS011;52661;51.364;6.054;2022-08-16T06:57:31;6.30;;;4.15;;
65879;SDS011;52661;51.364;6.054;2022-08-16T06:59:56;6.30;;;3.88;;
65879;SDS011;52661;51.364;6.054;2022-08-16T07:02:21;9.03;;;4.90;;
65879;SDS011;52661;51.364;6.054;2022-08-16T07:04:47;8.33;;;4.67;;
65879;SDS011;52661;51.364;6.054;2022-08-16T07:07:12;7.88;;;5.35;;
65879;SDS011;52661;51.364;6.054;2022-08-16T07:09:38;9.18;;;5.43;;
65879;SDS011;52661;51.364;6.054;2022-08-16T07:12:03;6.80;;;4.38;;
65879;SDS011;52661;51.364;6.054;2022-08-16T07:14:30;8.75;;;5.40;;
65879;SDS011;52661;51.364;6.054;2022-08-16T07:16:56;10.13;;;4.70;;
65879;SDS011;52661;51.364;6.054;2022-08-16T07:19:22;9.50;;;5.15;;
65879;SDS011;52661;51.364;6.054;2022-08-16T07:21:48;10.18;;;5.38;;
65879;SDS011;52661;51.364;6.054;2022-08-16T07:24:14;10.07;;;5.15;;
65879;SDS011;52661;51.364;6.054;2022-08-16T07:26:41;10.02;;;5.15;;
65879;SDS011;52661;51.364;6.054;2022-08-16T07:29:07;8.98;;;5.03;;
65879;SDS011;52661;51.364;6.054;2022-08-16T07:31:32;7.13;;;4.93;;
65879;SDS011;52661;51.364;6.054;2022-08-16T07:33:58;9.55;;;5.15;;
65879;SDS011;52661;51.364;6.054;2022-08-16T07:36:24;10.88;;;5.53;;
65879;SDS011;52661;51.364;6.054;2022-08-16T07:38:50;10.57;;;6.03;;
65879;SDS011;52661;51.364;6.054;2022-08-16T07:41:16;11.10;;;5.93;;
65879;SDS011;52661;51.364;6.054;2022-08-16T07:43:42;8.90;;;5.60;;
65879;SDS011;52661;51.364;6.054;2022-08-16T07:46:07;12.80;;;6.30;;
65879;SDS011;52661;51.364;6.054;2022-08-16T07:48:33;11.98;;;6.07;;
65879;SDS011;52661;51.364;6.054;2022-08-16T07:50:59;8.95;;;5.55;;
65879;SDS011;52661;51.364;6.054;2022-08-16T07:53:29;11.20;;;6.40;;
65879;SDS011;52661;51.364;6.054;2022-08-16T07:55:58;9.52;;;5.32;;
65879;SDS011;52661;51.364;6.054;2022-08-16T07:58:24;11.20;;;5.75;;
65879;SDS011;52661;51.364;6.054;2022-08-16T08:00:50;10.43;;;6.20;;
65879;SDS011;52661;51.364;6.054;2022-08-16T08:03:16;8.80;;;5.63;;
65879;SDS011;52661;51.364;6.054;2022-08-16T08:05:41;10.98;;;5.72;;
65879;SDS011;52661;51.364;6.054;2022-08-16T08:08:07;8.73;;;5.73;;
65879;SDS011;52661;51.364;6.054;2022-08-16T08:10:32;10.00;;;5.67;;
65879;SDS011;52661;51.364;6.054;2022-08-16T08:12:58;9.82;;;5.78;;
65879;SDS011;52661;51.364;6.054;2022-08-16T08:15:23;8.18;;;5.28;;
65879;SDS011;52661;51.364;6.054;2022-08-16T08:17:49;7.72;;;5.50;;
65879;SDS011;52661;51.364;6.054;2022-08-16T08:20:15;11.00;;;5.75;;
65879;SDS011;52661;51.364;6.054;2022-08-16T08:22:43;10.65;;;6.00;;
65879;SDS011;52661;51.364;6.054;2022-08-16T08:25:10;8.93;;;5.72;;
65879;SDS011;52661;51.364;6.054;2022-08-16T08:27:36;8.57;;;5.07;;
65879;SDS011;52661;51.364;6.054;2022-08-16T08:30:02;9.93;;;5.70;;
65879;SDS011;52661;51.364;6.054;2022-08-16T08:32:28;8.20;;;5.35;;
65879;SDS011;52661;51.364;6.054;2022-08-16T08:34:54;11.27;;;6.20;;
65879;SDS011;52661;51.364;6.054;2022-08-16T08:37:20;9.18;;;5.75;;
65879;SDS011;52661;51.364;6.054;2022-08-16T08:39:46;10.88;;;5.65;;
65879;SDS011;52661;51.364;6.054;2022-08-16T08:42:12;9.77;;;6.28;;
65879;SDS011;52661;51.364;6.054;2022-08-16T08:44:39;10.93;;;5.78;;
65879;SDS011;52661;51.364;6.054;2022-08-16T08:47:05;10.48;;;5.82;;
65879;SDS011;52661;51.364;6.054;2022-08-16T08:49:31;11.18;;;6.57;;
65879;SDS011;52661;51.364;6.054;2022-08-16T08:51:58;9.63;;;4.90;;
65879;SDS011;52661;51.364;6.054;2022-08-16T08:54:23;8.23;;;5.60;;
65879;SDS011;52661;51.364;6.054;2022-08-16T08:56:50;8.73;;;6.35;;
65879;SDS011;52661;51.364;6.054;2022-08-16T08:59:17;12.80;;;5.25;;
65879;SDS011;52661;51.364;6.054;2022-08-16T09:01:42;8.13;;;5.03;;
65879;SDS011;52661;51.364;6.054;2022-08-16T09:04:08;8.00;;;5.22;;
65879;SDS011;52661;51.364;6.054;2022-08-16T09:06:35;8.48;;;4.40;;
65879;SDS011;52661;51.364;6.054;2022-08-16T09:09:00;8.68;;;5.20;;
65879;SDS011;52661;51.364;6.054;2022-08-16T09:11:27;9.23;;;5.45;;
65879;SDS011;52661;51.364;6.054;2022-08-16T09:13:52;9.35;;;5.13;;
65879;SDS011;52661;51.364;6.054;2022-08-16T09:16:18;6.63;;;4.97;;
65879;SDS011;52661;51.364;6.054;2022-08-16T09:18:44;9.65;;;4.50;;
65879;SDS011;52661;51.364;6.054;2022-08-16T09:21:10;8.00;;;4.80;;
65879;SDS011;52661;51.364;6.054;2022-08-16T09:23:37;11.13;;;5.18;;
65879;SDS011;52661;51.364;6.054;2022-08-16T09:26:03;8.60;;;4.63;;
65879;SDS011;52661;51.364;6.054;2022-08-16T09:28:31;9.60;;;4.60;;
65879;SDS011;52661;51.364;6.054;2022-08-16T09:30:57;7.53;;;4.63;;
65879;SDS011;52661;51.364;6.054;2022-08-16T09:33:23;7.13;;;5.32;;
65879;SDS011;52661;51.364;6.054;2022-08-16T09:35:57;9.60;;;4.50;;
65879;SDS011;52661;51.364;6.054;2022-08-16T09:38:23;8.50;;;4.35;;
65879;SDS011;52661;51.364;6.054;2022-08-16T09:40:49;6.95;;;4.65;;
65879;SDS011;52661;51.364;6.054;2022-08-16T09:43:16;11.73;;;5.13;;
65879;SDS011;52661;51.364;6.054;2022-08-16T09:45:44;8.10;;;4.85;;
65879;SDS011;52661;51.364;6.054;2022-08-16T09:48:11;8.60;;;4.93;;
65879;SDS011;52661;51.364;6.054;2022-08-16T09:50:37;7.13;;;4.85;;
65879;SDS011;52661;51.364;6.054;2022-08-16T09:53:04;8.38;;;5.03;;
65879;SDS011;52661;51.364;6.054;2022-08-16T09:55:30;8.10;;;4.80;;
65879;SDS011;52661;51.364;6.054;2022-08-16T09:57:56;8.23;;;4.73;;
65879;SDS011;52661;51.364;6.054;2022-08-16T10:00:22;9.23;;;4.72;;
65879;SDS011;52661;51.364;6.054;2022-08-16T10:02:48;9.32;;;5.78;;
65879;SDS011;52661;51.364;6.054;2022-08-16T10:05:16;9.52;;;4.55;;
65879;SDS011;52661;51.364;6.054;2022-08-16T10:07:43;9.52;;;4.90;;
65879;SDS011;52661;51.364;6.054;2022-08-16T10:10:09;8.95;;;5.00;;
65879;SDS011;52661;51.364;6.054;2022-08-16T10:12:34;10.55;;;4.68;;
65879;SDS011;52661;51.364;6.054;2022-08-16T10:15:19;9.23;;;5.25;;
65879;SDS011;52661;51.364;6.054;2022-08-16T10:17:46;8.73;;;5.22;;
65879;SDS011;52661;51.364;6.054;2022-08-16T10:20:13;9.55;;;5.15;;
65879;SDS011;52661;51.364;6.054;2022-08-16T10:22:39;8.65;;;4.72;;
65879;SDS011;52661;51.364;6.054;2022-08-16T10:25:05;8.95;;;5.50;;
65879;SDS011;52661;51.364;6.054;2022-08-16T10:27:31;10.52;;;5.30;;
65879;SDS011;52661;51.364;6.054;2022-08-16T10:29:59;11.70;;;4.95;;
65879;SDS011;52661;51.364;6.054;2022-08-16T10:32:26;7.82;;;4.50;;
65879;SDS011;52661;51.364;6.054;2022-08-16T10:34:51;8.73;;;4.05;;
65879;SDS011;52661;51.364;6.054;2022-08-16T10:37:16;5.95;;;3.58;;
65879;SDS011;52661;51.364;6.054;2022-08-16T10:39:42;7.88;;;3.50;;
65879;SDS011;52661;51.364;6.054;2022-08-16T10:42:08;5.90;;;3.77;;
65879;SDS011;52661;51.364;6.054;2022-08-16T10:44:35;7.10;;;3.88;;
65879;SDS011;52661;51.364;6.054;2022-08-16T10:47:00;9.55;;;4.10;;
65879;SDS011;52661;51.364;6.054;2022-08-16T10:49:25;5.87;;;3.47;;
65879;SDS011;52661;51.364;6.054;2022-08-16T10:51:51;7.43;;;4.17;;
65879;SDS011;52661;51.364;6.054;2022-08-16T10:56:43;6.10;;;3.20;;
65879;SDS011;52661;51.364;6.054;2022-08-16T10:59:08;7.72;;;4.22;;
65879;SDS011;52661;51.364;6.054;2022-08-16T11:01:34;8.70;;;4.35;;
65879;SDS011;52661;51.364;6.054;2022-08-16T11:04:00;9.88;;;3.28;;
65879;SDS011;52661;51.364;6.054;2022-08-16T11:06:26;7.22;;;3.22;;
65879;SDS011;52661;51.364;6.054;2022-08-16T11:08:52;5.50;;;3.20;;
65879;SDS011;52661;51.364;6.054;2022-08-16T11:11:17;7.35;;;3.17;;
65879;SDS011;52661;51.364;6.054;2022-08-16T11:13:43;6.65;;;2.95;;
65879;SDS011;52661;51.364;6.054;2022-08-16T11:16:10;6.20;;;3.33;;
65879;SDS011;52661;51.364;6.054;2022-08-16T11:18:36;5.97;;;3.00;;
65879;SDS011;52661;51.364;6.054;2022-08-16T11:21:02;7.20;;;2.78;;
65879;SDS011;52661;51.364;6.054;2022-08-16T11:23:28;5.82;;;3.03;;
65879;SDS011;52661;51.364;6.054;2022-08-16T11:25:53;6.18;;;2.63;;
65879;SDS011;52661;51.364;6.054;2022-08-16T11:28:20;5.95;;;2.85;;
65879;SDS011;52661;51.364;6.054;2022-08-16T11:30:46;6.15;;;3.10;;
65879;SDS011;52661;51.364;6.054;2022-08-16T11:33:12;4.25;;;2.45;;
65879;SDS011;52661;51.364;6.054;2022-08-16T11:35:38;9.32;;;3.13;;
65879;SDS011;52661;51.364;6.054;2022-08-16T11:43:02;4.82;;;2.70;;
65879;SDS011;52661;51.364;6.054;2022-08-16T11:45:28;4.70;;;2.53;;
65879;SDS011;52661;51.364;6.054;2022-08-16T11:47:53;6.25;;;3.00;;
65879;SDS011;52661;51.364;6.054;2022-08-16T11:50:19;4.70;;;2.90;;
65879;SDS011;52661;51.364;6.054;2022-08-16T11:52:47;5.57;;;2.70;;
65879;SDS011;52661;51.364;6.054;2022-08-16T11:55:12;5.15;;;2.78;;
65879;SDS011;52661;51.364;6.054;2022-08-16T11:57:38;7.33;;;2.60;;
65879;SDS011;52661;51.364;6.054;2022-08-16T12:00:05;4.40;;;2.80;;
65879;SDS011;52661;51.364;6.054;2022-08-16T12:02:34;4.55;;;2.90;;
65879;SDS011;52661;51.364;6.054;2022-08-16T12:04:59;3.97;;;2.47;;
65879;SDS011;52661;51.364;6.054;2022-08-16T12:07:24;5.80;;;2.53;;
65879;SDS011;52661;51.364;6.054;2022-08-16T12:09:51;5.05;;;2.80;;
65879;SDS011;52661;51.364;6.054;2022-08-16T12:12:17;7.63;;;2.28;;
65879;SDS011;52661;51.364;6.054;2022-08-16T12:14:42;6.03;;;3.13;;
65879;SDS011;52661;51.364;6.054;2022-08-16T12:17:08;6.78;;;2.72;;
65879;SDS011;52661;51.364;6.054;2022-08-16T12:19:33;5.43;;;2.70;;
65879;SDS011;52661;51.364;6.054;2022-08-16T12:21:59;4.95;;;2.75;;
65879;SDS011;52661;51.364;6.054;2022-08-16T12:24:25;5.68;;;2.95;;
65879;SDS011;52661;51.364;6.054;2022-08-16T12:26:52;4.15;;;2.97;;
65879;SDS011;52661;51.364;6.054;2022-08-16T12:29:18;5.07;;;2.58;;
65879;SDS011;52661;51.364;6.054;2022-08-16T12:31:43;4.45;;;2.80;;
65879;SDS011;52661;51.364;6.054;2022-08-16T12:34:09;5.65;;;2.88;;
65879;SDS011;52661;51.364;6.054;2022-08-16T12:36:34;5.05;;;2.70;;
65879;SDS011;52661;51.364;6.054;2022-08-16T12:39:01;5.82;;;2.63;;
65879;SDS011;52661;51.364;6.054;2022-08-16T12:41:28;5.03;;;2.42;;
65879;SDS011;52661;51.364;6.054;2022-08-16T12:43:56;5.22;;;3.25;;
65879;SDS011;52661;51.364;6.054;2022-08-16T12:46:22;5.03;;;2.60;;
65879;SDS011;52661;51.364;6.054;2022-08-16T12:48:47;4.53;;;2.53;;
65879;SDS011;52661;51.364;6.054;2022-08-16T12:51:32;4.75;;;2.35;;
65879;SDS011;52661;51.364;6.054;2022-08-16T12:54:03;5.78;;;2.65;;
65879;SDS011;52661;51.364;6.054;2022-08-16T12:56:32;4.18;;;2.75;;
65879;SDS011;52661;51.364;6.054;2022-08-16T12:59:00;4.28;;;2.58;;
65879;SDS011;52661;51.364;6.054;2022-08-16T13:01:30;4.78;;;2.70;;
65879;SDS011;52661;51.364;6.054;2022-08-16T13:03:58;8.05;;;2.90;;
65879;SDS011;52661;51.364;6.054;2022-08-16T13:06:24;5.40;;;2.65;;
65879;SDS011;52661;51.364;6.054;2022-08-16T13:08:51;4.38;;;2.47;;
65879;SDS011;52661;51.364;6.054;2022-08-16T13:11:19;5.32;;;2.40;;
65879;SDS011;52661;51.364;6.054;2022-08-16T13:13:53;5.03;;;2.55;;
65879;SDS011;52661;51.364;6.054;2022-08-16T13:16:18;4.25;;;2.45;;
65879;SDS011;52661;51.364;6.054;2022-08-16T13:18:43;4.43;;;2.15;;
65879;SDS011;52661;51.364;6.054;2022-08-16T13:21:09;3.60;;;2.47;;
65879;SDS011;52661;51.364;6.054;2022-08-16T13:23:35;4.20;;;2.55;;
65879;SDS011;52661;51.364;6.054;2022-08-16T13:26:01;6.10;;;2.50;;
65879;SDS011;52661;51.364;6.054;2022-08-16T13:28:27;4.47;;;2.53;;
65879;SDS011;52661;51.364;6.054;2022-08-16T13:30:53;6.00;;;3.17;;
65879;SDS011;52661;51.364;6.054;2022-08-16T13:33:22;4.95;;;2.60;;
65879;SDS011;52661;51.364;6.054;2022-08-16T13:35:50;4.75;;;2.65;;
65879;SDS011;52661;51.364;6.054;2022-08-16T13:38:17;6.07;;;2.90;;
65879;SDS011;52661;51.364;6.054;2022-08-16T13:40:43;4.50;;;2.47;;
65879;SDS011;52661;51.364;6.054;2022-08-16T13:43:09;4.72;;;2.70;;
65879;SDS011;52661;51.364;6.054;2022-08-16T13:45:34;4.95;;;3.13;;
65879;SDS011;52661;51.364;6.054;2022-08-16T13:48:00;4.40;;;2.53;;
65879;SDS011;52661;51.364;6.054;2022-08-16T13:50:26;5.18;;;2.65;;
65879;SDS011;52661;51.364;6.054;2022-08-16T13:52:52;4.93;;;3.05;;
65879;SDS011;52661;51.364;6.054;2022-08-16T13:57:44;4.68;;;2.50;;
65879;SDS011;52661;51.364;6.054;2022-08-16T14:00:10;7.82;;;2.65;;
65879;SDS011;52661;51.364;6.054;2022-08-16T14:02:36;7.00;;;3.72;;
65879;SDS011;52661;51.364;6.054;2022-08-16T14:05:02;6.13;;;2.88;;
65879;SDS011;52661;51.364;6.054;2022-08-16T14:07:28;3.90;;;3.03;;
65879;SDS011;52661;51.364;6.054;2022-08-16T14:09:54;5.32;;;2.88;;
65879;SDS011;52661;51.364;6.054;2022-08-16T14:14:50;5.30;;;3.17;;
65879;SDS011;52661;51.364;6.054;2022-08-16T14:17:16;6.10;;;2.60;;
65879;SDS011;52661;51.364;6.054;2022-08-16T14:19:42;5.13;;;2.72;;
65879;SDS011;52661;51.364;6.054;2022-08-16T14:22:08;7.60;;;2.88;;
65879;SDS011;52661;51.364;6.054;2022-08-16T14:24:34;5.28;;;2.70;;
65879;SDS011;52661;51.364;6.054;2022-08-16T14:27:00;5.80;;;2.88;;
65879;SDS011;52661;51.364;6.054;2022-08-16T14:29:26;4.10;;;2.72;;
65879;SDS011;52661;51.364;6.054;2022-08-16T14:31:55;4.38;;;2.70;;
65879;SDS011;52661;51.364;6.054;2022-08-16T14:34:22;6.38;;;3.00;;
65879;SDS011;52661;51.364;6.054;2022-08-16T14:36:47;4.60;;;2.55;;
65879;SDS011;52661;51.364;6.054;2022-08-16T14:39:12;4.57;;;3.00;;
65879;SDS011;52661;51.364;6.054;2022-08-16T14:41:38;6.88;;;3.55;;
65879;SDS011;52661;51.364;6.054;2022-08-16T14:44:03;7.32;;;3.30;;
65879;SDS011;52661;51.364;6.054;2022-08-16T14:46:28;4.82;;;3.08;;
65879;SDS011;52661;51.364;6.054;2022-08-16T14:48:54;4.45;;;2.60;;
65879;SDS011;52661;51.364;6.054;2022-08-16T14:51:20;5.65;;;2.58;;
65879;SDS011;52661;51.364;6.054;2022-08-16T14:53:45;4.10;;;2.75;;
65879;SDS011;52661;51.364;6.054;2022-08-16T14:56:11;4.55;;;3.00;;
65879;SDS011;52661;51.364;6.054;2022-08-16T14:58:37;4.78;;;2.97;;
65879;SDS011;52661;51.364;6.054;2022-08-16T15:01:03;5.07;;;4.03;;
65879;SDS011;52661;51.364;6.054;2022-08-16T15:03:29;5.25;;;3.03;;